Time;durP1;ratioP1;P1;durP2;ratioP2;P2;SDS_P1;SDS_P2;PMS_P1;PMS_P2;Temp;Humidity;BMP_temperature;BMP_pressure;BME280_temperature;BME280_humidity;BME280_pressure;Samples;Min_cycle;Max_cycle;Signal;HPM_P1;HPM_P2
2021/08/07 00:01:53;;;;;;;;;;;23.90;48.40;;;;;;1564787;74;738;-61
2021/08/07 00:03:55;;;;;;;;;;;23.90;48.40;;;;;;1565285;74;1957;-59
2021/08/07 00:05:57;;;;;;;;;;;23.90;48.40;;;;;;1562946;74;720;-60
2021/08/07 00:07:59;;;;;;;;;;;23.90;48.40;;;;;;1560058;74;764;-60
2021/08/07 00:10:01;;;;;;;;;;;23.80;48.20;;;;;;1559606;74;794;-59
2021/08/07 00:12:03;;;;;;;;;;;23.80;48.20;;;;;;1564126;74;1208;-60
2021/08/07 00:14:05;;;;;;;;;;;23.90;48.40;;;;;;1560336;74;707;-60
2021/08/07 00:16:07;;;;;;;;;;;23.90;48.30;;;;;;1558327;74;619;-61
2021/08/07 00:18:09;;;;;;;;;;;23.80;48.20;;;;;;1557488;74;946;-60
2021/08/07 00:20:11;;;;;;;;;;;23.90;48.40;;;;;;1557402;74;731;-61
2021/08/07 00:22:15;;;;;;;;;;;23.90;48.30;;;;;;1560298;74;1145;-60
2021/08/07 00:24:16;;;;;;;;;;;23.90;48.30;;;;;;1554652;74;2042;-61
2021/08/07 00:26:18;;;;;;;;;;;23.80;48.20;;;;;;1556317;74;797;-61
2021/08/07 00:28:20;;;;;;;;;;;23.80;48.10;;;;;;1556353;74;951;-61
2021/08/07 00:30:22;;;;;;;;;;;23.90;48.20;;;;;;1565527;74;806;-60
2021/08/07 00:32:24;;;;;;;;;;;23.80;48.00;;;;;;1551451;74;1115;-60
2021/08/07 00:34:26;;;;;;;;;;;23.80;48.10;;;;;;1556668;74;711;-60
2021/08/07 00:36:28;;;;;;;;;;;23.90;48.20;;;;;;1556234;74;788;-60
2021/08/07 00:38:29;;;;;;;;;;;23.90;48.20;;;;;;1551516;74;817;-60
2021/08/07 00:40:31;;;;;;;;;;;23.80;48.10;;;;;;1566132;74;713;-60
2021/08/07 00:42:33;;;;;;;;;;;23.90;48.10;;;;;;1560779;74;1962;-60
2021/08/07 00:44:35;;;;;;;;;;;23.80;48.10;;;;;;1558379;74;773;-60
2021/08/07 00:46:37;;;;;;;;;;;23.90;48.10;;;;;;1556232;74;733;-60
2021/08/07 00:48:39;;;;;;;;;;;23.90;48.10;;;;;;1564933;74;829;-61
2021/08/07 00:50:41;;;;;;;;;;;23.90;48.20;;;;;;1562709;74;780;-62
2021/08/07 00:52:43;;;;;;;;;;;23.90;48.10;;;;;;1563364;74;1152;-62
2021/08/07 00:54:44;;;;;;;;;;;23.90;48.00;;;;;;1566308;74;683;-61
2021/08/07 00:56:46;;;;;;;;;;;23.90;48.10;;;;;;1558700;74;700;-61
2021/08/07 00:58:48;;;;;;;;;;;23.90;48.30;;;;;;1565156;74;717;-61
2021/08/07 01:00:50;;;;;;;;;;;23.90;48.00;;;;;;1568688;74;716;-61
2021/08/07 01:02:54;;;;;;;;;;;23.90;47.90;;;;;;1562510;74;1966;-61
2021/08/07 01:05:00;;;;;;;;;;;23.90;47.80;;;;;;1566240;74;1033;-61
2021/08/07 01:07:04;;;;;;;;;;;23.90;47.80;;;;;;1565149;74;686;-62
2021/08/07 01:09:07;;;;;;;;;;;23.90;47.80;;;;;;1569572;74;765;-61
2021/08/07 01:11:11;;;;;;;;;;;23.90;47.80;;;;;;1568501;74;1159;-60
2021/08/07 01:13:20;;;;;;;;;;;23.90;47.80;;;;;;1564415;74;1164;-61
2021/08/07 01:15:23;;;;;;;;;;;23.90;47.80;;;;;;1524895;74;1120;-61
2021/08/07 01:17:26;;;;;;;;;;;23.90;47.80;;;;;;1568922;74;730;-60
2021/08/07 01:19:29;;;;;;;;;;;23.90;47.80;;;;;;1553885;74;752;-60
2021/08/07 01:21:32;;;;;;;;;;;23.80;47.90;;;;;;1565315;74;778;-61
2021/08/07 01:23:40;;;;;;;;;;;23.90;47.90;;;;;;1557730;74;1954;-60
2021/08/07 01:25:50;;;;;;;;;;;23.80;47.80;;;;;;1560881;74;643;-60
2021/08/07 01:27:52;;;;;;;;;;;23.80;47.80;;;;;;1551094;74;910;-60
2021/08/07 01:29:54;;;;;;;;;;;23.80;47.80;;;;;;1553011;74;721;-60
2021/08/07 01:31:56;;;;;;;;;;;23.90;47.90;;;;;;1563961;74;797;-61
2021/08/07 01:33:58;;;;;;;;;;;23.90;48.10;;;;;;1557436;74;1075;-60
2021/08/07 01:36:00;;;;;;;;;;;23.90;48.10;;;;;;1565527;74;731;-61
2021/08/07 01:38:01;;;;;;;;;;;23.90;48.10;;;;;;1569398;74;857;-60
2021/08/07 01:40:04;;;;;;;;;;;23.80;48.00;;;;;;1572085;74;800;-60
2021/08/07 01:42:05;;;;;;;;;;;23.90;48.10;;;;;;1570911;74;1140;-61
2021/08/07 01:44:07;;;;;;;;;;;23.80;48.10;;;;;;1563302;74;1943;-60
2021/08/07 01:46:10;;;;;;;;;;;23.90;48.00;;;;;;1554025;74;714;-61
2021/08/07 01:48:19;;;;;;;;;;;23.80;48.10;;;;;;1562905;74;906;-60
2021/08/07 01:50:35;;;;;;;;;;;23.80;48.00;;;;;;1555870;74;1610;-60
2021/08/07 01:52:38;;;;;;;;;;;23.90;48.10;;;;;;1564844;74;1873;-60
2021/08/07 01:54:41;;;;;;;;;;;23.80;48.00;;;;;;1564627;74;701;-61
2021/08/07 01:58:52;;;;;;;;;;;23.80;48.00;;;;;;1534682;76;630;-72
2021/08/07 02:00:54;;;;;;;;;;;23.90;48.00;;;;;;1537934;77;724;-70
2021/08/07 02:02:56;;;;;;;;;;;23.80;48.00;;;;;;1539293;76;1940;-70
2021/08/07 02:04:58;;;;;;;;;;;23.80;48.10;;;;;;1543516;76;734;-70
2021/08/07 02:07:00;;;;;;;;;;;23.90;48.20;;;;;;1542222;76;1210;-69
2021/08/07 02:09:02;;;;;;;;;;;23.80;48.10;;;;;;1537936;76;632;-69
2021/08/07 02:11:04;;;;;;;;;;;23.90;48.10;;;;;;1527533;76;612;-69
2021/08/07 02:13:06;;;;;;;;;;;23.80;48.00;;;;;;1535411;76;748;-71
2021/08/07 02:15:08;;;;;;;;;;;23.80;47.80;;;;;;1536500;76;715;-70
2021/08/07 02:17:10;;;;;;;;;;;23.80;47.80;;;;;;1542756;76;1179;-69
2021/08/07 02:19:12;;;;;;;;;;;23.90;47.90;;;;;;1541551;76;788;-70
2021/08/07 02:21:15;;;;;;;;;;;23.80;47.90;;;;;;1536166;76;824;-72
2021/08/07 02:23:17;;;;;;;;;;;23.90;48.10;;;;;;1538657;76;1928;-71
2021/08/07 02:25:19;;;;;;;;;;;23.80;48.00;;;;;;1536919;76;582;-73
2021/08/07 02:27:21;;;;;;;;;;;23.80;47.90;;;;;;1514473;77;1131;-73
2021/08/07 02:29:23;;;;;;;;;;;23.90;47.90;;;;;;1506786;78;775;-73
2021/08/07 02:31:25;;;;;;;;;;;23.80;47.70;;;;;;1498809;78;730;-72
2021/08/07 02:33:26;;;;;;;;;;;23.80;47.80;;;;;;1488952;78;762;-72
2021/08/07 02:35:28;;;;;;;;;;;23.80;47.70;;;;;;1509023;78;776;-72
2021/08/07 02:37:30;;;;;;;;;;;23.90;47.70;;;;;;1509840;77;1167;-74
2021/08/07 02:39:32;;;;;;;;;;;23.90;47.90;;;;;;1500790;78;780;-74
2021/08/07 02:41:34;;;;;;;;;;;23.90;47.80;;;;;;1506092;78;793;-74
2021/08/07 02:43:36;;;;;;;;;;;23.90;47.80;;;;;;1506704;79;1941;-74
2021/08/07 02:45:38;;;;;;;;;;;23.80;47.70;;;;;;1506070;78;803;-74
2021/08/07 02:47:40;;;;;;;;;;;23.80;47.60;;;;;;1502596;78;1131;-72
2021/08/07 02:49:42;;;;;;;;;;;23.80;47.50;;;;;;1498825;78;731;-73
2021/08/07 02:51:44;;;;;;;;;;;23.80;47.50;;;;;;1497961;78;754;-73
2021/08/07 02:53:45;;;;;;;;;;;23.80;47.50;;;;;;1501073;78;812;-73
2021/08/07 02:55:48;;;;;;;;;;;23.80;47.60;;;;;;1498881;78;776;-73
2021/08/07 02:57:52;;;;;;;;;;;23.80;47.60;;;;;;1488509;78;1124;-71
2021/08/07 02:59:54;;;;;;;;;;;23.80;47.70;;;;;;1482727;78;694;-73
2021/08/07 03:01:56;;;;;;;;;;;23.80;47.70;;;;;;1468099;78;727;-74
2021/08/07 03:03:58;;;;;;;;;;;23.80;47.60;;;;;;1476832;78;1954;-73
2021/08/07 03:06:00;;;;;;;;;;;23.80;47.60;;;;;;1483214;78;812;-73
2021/08/07 03:08:02;;;;;;;;;;;23.80;47.80;;;;;;1481814;78;1133;-73
2021/08/07 03:10:05;;;;;;;;;;;23.70;47.80;;;;;;1484444;78;682;-72
2021/08/07 03:12:07;;;;;;;;;;;23.80;47.90;;;;;;1490740;78;1014;-72
2021/08/07 03:14:09;;;;;;;;;;;23.80;47.80;;;;;;1471708;78;722;-72
2021/08/07 03:16:11;;;;;;;;;;;23.80;47.80;;;;;;1477622;78;667;-71
2021/08/07 03:18:13;;;;;;;;;;;23.80;47.80;;;;;;1477243;78;1155;-74
2021/08/07 03:20:15;;;;;;;;;;;23.80;47.80;;;;;;1494211;78;805;-73
2021/08/07 03:22:17;;;;;;;;;;;23.80;47.70;;;;;;1480447;78;772;-73
2021/08/07 03:24:19;;;;;;;;;;;23.80;47.60;;;;;;1479617;78;1919;-73
2021/08/07 03:26:21;;;;;;;;;;;23.80;47.60;;;;;;1480564;78;686;-74
2021/08/07 03:28:23;;;;;;;;;;;23.80;47.60;;;;;;1473689;78;1114;-73
2021/08/07 03:30:25;;;;;;;;;;;23.90;47.80;;;;;;1486829;78;816;-73
2021/08/07 03:32:26;;;;;;;;;;;23.80;47.70;;;;;;1482534;78;730;-72
2021/08/07 03:34:28;;;;;;;;;;;23.80;47.70;;;;;;1473661;78;770;-70
2021/08/07 03:36:30;;;;;;;;;;;23.80;47.60;;;;;;1480694;78;742;-73
2021/08/07 03:38:32;;;;;;;;;;;23.80;47.60;;;;;;1482482;78;1107;-76
2021/08/07 03:40:34;;;;;;;;;;;23.80;47.60;;;;;;1473257;78;773;-77
2021/08/07 03:42:37;;;;;;;;;;;23.80;47.50;;;;;;1474411;78;765;-76
2021/08/07 03:44:39;;;;;;;;;;;23.80;47.40;;;;;;1476550;78;1913;-76
2021/08/07 03:46:41;;;;;;;;;;;23.80;47.40;;;;;;1474090;78;1155;-76
2021/08/07 03:48:43;;;;;;;;;;;23.80;47.40;;;;;;1483266;78;784;-72
2021/08/07 03:50:45;;;;;;;;;;;23.80;47.60;;;;;;1486673;78;666;-72
2021/08/07 03:52:47;;;;;;;;;;;23.80;47.60;;;;;;1483230;78;794;-73
2021/08/07 03:54:48;;;;;;;;;;;23.80;47.50;;;;;;1489030;78;718;-73
2021/08/07 03:56:50;;;;;;;;;;;23.80;47.60;;;;;;1487044;78;1120;-73
2021/08/07 03:58:52;;;;;;;;;;;23.90;47.60;;;;;;1483062;78;807;-73
2021/08/07 04:00:54;;;;;;;;;;;23.80;47.50;;;;;;1480465;78;813;-72
2021/08/07 04:02:56;;;;;;;;;;;23.90;47.60;;;;;;1485592;78;927;-75
2021/08/07 04:04:58;;;;;;;;;;;23.90;47.50;;;;;;1481610;78;1936;-73
2021/08/07 04:07:00;;;;;;;;;;;23.90;47.50;;;;;;1470701;78;1099;-71
2021/08/07 04:09:02;;;;;;;;;;;23.90;47.60;;;;;;1478766;78;775;-71
2021/08/07 04:11:04;;;;;;;;;;;23.90;47.70;;;;;;1473526;78;731;-72
2021/08/07 04:13:05;;;;;;;;;;;23.80;47.60;;;;;;1478487;78;770;-72
2021/08/07 04:15:07;;;;;;;;;;;23.90;47.80;;;;;;1473414;78;790;-71
2021/08/07 04:17:09;;;;;;;;;;;23.90;47.80;;;;;;1469509;78;1167;-72
2021/08/07 04:19:11;;;;;;;;;;;23.90;47.80;;;;;;1469173;78;685;-71
2021/08/07 04:21:13;;;;;;;;;;;23.90;47.90;;;;;;1470994;78;738;-72
2021/08/07 04:23:15;;;;;;;;;;;23.90;47.90;;;;;;1476124;78;756;-72
2021/08/07 04:25:17;;;;;;;;;;;23.90;47.90;;;;;;1473353;78;1937;-72
2021/08/07 04:27:20;;;;;;;;;;;23.80;47.90;;;;;;1475775;78;1177;-72
2021/08/07 04:29:22;;;;;;;;;;;23.90;47.90;;;;;;1472896;78;714;-72
2021/08/07 04:31:24;;;;;;;;;;;23.80;47.90;;;;;;1475678;78;739;-70
2021/08/07 04:33:26;;;;;;;;;;;23.80;48.00;;;;;;1471013;78;781;-71
2021/08/07 04:35:27;;;;;;;;;;;23.90;48.10;;;;;;1470010;78;723;-71
2021/08/07 04:37:29;;;;;;;;;;;23.80;47.90;;;;;;1476523;78;1222;-70
2021/08/07 04:39:31;;;;;;;;;;;23.90;48.00;;;;;;1473882;78;727;-71
2021/08/07 04:41:34;;;;;;;;;;;23.80;47.90;;;;;;1475659;78;748;-71
2021/08/07 04:43:36;;;;;;;;;;;23.90;47.90;;;;;;1475164;78;757;-70
2021/08/07 04:45:38;;;;;;;;;;;23.80;47.80;;;;;;1471577;78;1947;-69
2021/08/07 04:47:55;;;;;;;;;;;23.90;47.90;;;;;;1474129;78;1150;-68
2021/08/07 04:49:57;;;;;;;;;;;23.80;47.90;;;;;;1474394;78;770;-70
2021/08/07 04:51:59;;;;;;;;;;;23.90;48.00;;;;;;1473185;78;762;-71
2021/08/07 04:54:01;;;;;;;;;;;23.80;47.90;;;;;;1474016;78;711;-70
2021/08/07 04:56:03;;;;;;;;;;;23.80;47.90;;;;;;1473622;78;711;-70
2021/08/07 04:58:05;;;;;;;;;;;23.80;48.00;;;;;;1475118;78;1169;-70
2021/08/07 05:00:07;;;;;;;;;;;23.90;48.00;;;;;;1474830;78;776;-66
2021/08/07 05:02:09;;;;;;;;;;;23.90;48.10;;;;;;1476155;78;816;-69
2021/08/07 05:04:12;;;;;;;;;;;23.90;48.10;;;;;;1478827;78;1939;-69
2021/08/07 05:06:13;;;;;;;;;;;23.90;48.10;;;;;;1479737;78;774;-73
2021/08/07 05:08:15;;;;;;;;;;;23.90;48.10;;;;;;1479338;78;1133;-70
2021/08/07 05:10:17;;;;;;;;;;;23.80;48.00;;;;;;1484788;78;786;-69
2021/08/07 05:12:21;;;;;;;;;;;23.90;48.00;;;;;;1478543;78;866;-69
2021/08/07 05:14:23;;;;;;;;;;;23.90;47.90;;;;;;1477907;78;859;-70
2021/08/07 05:16:24;;;;;;;;;;;23.90;47.80;;;;;;1477667;78;778;-69
2021/08/07 05:18:26;;;;;;;;;;;23.80;47.80;;;;;;1478145;78;1096;-69
2021/08/07 05:20:28;;;;;;;;;;;23.90;47.90;;;;;;1477664;78;721;-69
2021/08/07 05:22:30;;;;;;;;;;;23.90;47.90;;;;;;1476893;78;782;-69
2021/08/07 05:24:32;;;;;;;;;;;23.90;48.10;;;;;;1475678;78;1951;-72
2021/08/07 05:26:34;;;;;;;;;;;23.80;47.90;;;;;;1485383;78;761;-72
2021/08/07 05:28:36;;;;;;;;;;;23.80;47.90;;;;;;1483043;78;1183;-73
2021/08/07 05:30:38;;;;;;;;;;;23.80;48.00;;;;;;1482529;78;723;-72
2021/08/07 05:32:40;;;;;;;;;;;23.90;48.10;;;;;;1478360;78;776;-72
2021/08/07 05:34:41;;;;;;;;;;;23.90;48.10;;;;;;1476362;78;848;-72
2021/08/07 05:36:43;;;;;;;;;;;23.80;48.00;;;;;;1477731;78;1159;-71
2021/08/07 05:38:45;;;;;;;;;;;23.80;48.10;;;;;;1484041;78;784;-73
2021/08/07 05:40:47;;;;;;;;;;;23.80;48.10;;;;;;1485919;78;772;-73
2021/08/07 05:42:49;;;;;;;;;;;23.80;48.20;;;;;;1489673;78;856;-73
2021/08/07 05:44:51;;;;;;;;;;;23.80;48.30;;;;;;1490284;78;1931;-73
2021/08/07 05:46:53;;;;;;;;;;;23.80;48.30;;;;;;1485755;78;1155;-72
2021/08/07 05:48:56;;;;;;;;;;;23.80;48.40;;;;;;1490271;78;788;-71
2021/08/07 05:50:58;;;;;;;;;;;23.80;48.60;;;;;;1484446;79;772;-72
2021/08/07 05:52:59;;;;;;;;;;;23.80;48.40;;;;;;1484114;78;926;-72
2021/08/07 05:55:01;;;;;;;;;;;23.90;48.50;;;;;;1486282;78;799;-72
2021/08/07 05:57:03;;;;;;;;;;;23.80;48.40;;;;;;1492700;78;1129;-71
2021/08/07 05:59:05;;;;;;;;;;;23.80;48.60;;;;;;1485435;79;752;-72
2021/08/07 06:01:07;;;;;;;;;;;23.80;48.50;;;;;;1490479;78;843;-72
2021/08/07 06:03:09;;;;;;;;;;;23.70;48.60;;;;;;1495340;78;798;-72
2021/08/07 06:05:11;;;;;;;;;;;23.80;48.60;;;;;;1489317;78;1954;-71
2021/08/07 06:07:13;;;;;;;;;;;23.80;48.60;;;;;;1485301;78;1174;-72
2021/08/07 06:09:15;;;;;;;;;;;23.70;48.60;;;;;;1485545;79;615;-71
2021/08/07 06:11:16;;;;;;;;;;;23.70;48.60;;;;;;1488428;78;730;-73
2021/08/07 06:13:18;;;;;;;;;;;23.70;48.70;;;;;;1491084;78;803;-71
2021/08/07 06:15:20;;;;;;;;;;;23.70;48.70;;;;;;1485451;78;759;-72
2021/08/07 06:17:22;;;;;;;;;;;23.70;48.70;;;;;;1488208;78;1135;-72
2021/08/07 06:19:24;;;;;;;;;;;23.70;48.70;;;;;;1477397;78;725;-72
2021/08/07 06:21:26;;;;;;;;;;;23.80;48.70;;;;;;1482442;78;758;-71
2021/08/07 06:23:28;;;;;;;;;;;23.70;48.90;;;;;;1495918;78;745;-72
2021/08/07 06:25:29;;;;;;;;;;;23.70;48.90;;;;;;1494829;78;1947;-73
2021/08/07 06:27:31;;;;;;;;;;;23.70;48.90;;;;;;1492532;78;1130;-73
2021/08/07 06:29:33;;;;;;;;;;;23.70;49.00;;;;;;1494427;78;779;-73
2021/08/07 06:31:35;;;;;;;;;;;23.70;49.00;;;;;;1493397;78;693;-72
2021/08/07 06:33:37;;;;;;;;;;;23.70;49.00;;;;;;1481511;79;769;-70
2021/08/07 06:35:39;;;;;;;;;;;23.70;49.00;;;;;;1488022;78;760;-72
2021/08/07 06:37:41;;;;;;;;;;;23.70;49.00;;;;;;1492852;78;1157;-72
2021/08/07 06:39:43;;;;;;;;;;;23.70;49.00;;;;;;1493794;78;719;-72
2021/08/07 06:41:45;;;;;;;;;;;23.80;49.00;;;;;;1495682;78;782;-69
2021/08/07 06:43:47;;;;;;;;;;;23.80;49.00;;;;;;1487778;78;734;-72
2021/08/07 06:45:49;;;;;;;;;;;23.80;49.00;;;;;;1494414;78;1944;-72
2021/08/07 06:47:50;;;;;;;;;;;23.80;49.00;;;;;;1485533;78;1126;-72
2021/08/07 06:49:52;;;;;;;;;;;23.80;49.00;;;;;;1495528;78;721;-72
2021/08/07 06:51:54;;;;;;;;;;;23.80;49.10;;;;;;1484516;78;735;-72
2021/08/07 06:53:56;;;;;;;;;;;23.80;49.10;;;;;;1491619;78;712;-71
2021/08/07 06:55:58;;;;;;;;;;;23.80;49.10;;;;;;1489571;78;708;-71
2021/08/07 06:58:00;;;;;;;;;;;23.70;49.10;;;;;;1489051;78;1127;-70
2021/08/07 07:00:03;;;;;;;;;;;23.80;49.10;;;;;;1492410;78;794;-72
2021/08/07 07:02:04;;;;;;;;;;;23.80;49.20;;;;;;1489192;78;672;-72
2021/08/07 07:04:06;;;;;;;;;;;23.80;49.20;;;;;;1476610;78;645;-72
2021/08/07 07:06:08;;;;;;;;;;;23.90;49.20;;;;;;1492328;78;1938;-72
2021/08/07 07:08:10;;;;;;;;;;;23.80;49.10;;;;;;1489891;78;1132;-72
2021/08/07 07:10:12;;;;;;;;;;;23.80;49.20;;;;;;1481585;78;743;-72
2021/08/07 07:12:15;;;;;;;;;;;23.80;49.20;;;;;;1490841;78;750;-71
2021/08/07 07:14:17;;;;;;;;;;;23.90;49.40;;;;;;1483643;78;797;-72
2021/08/07 07:16:19;;;;;;;;;;;23.80;49.50;;;;;;1485527;78;761;-72
2021/08/07 07:18:21;;;;;;;;;;;23.80;49.50;;;;;;1495926;78;1119;-72
2021/08/07 07:20:23;;;;;;;;;;;23.90;49.70;;;;;;1489867;78;746;-72
2021/08/07 07:22:25;;;;;;;;;;;23.90;50.00;;;;;;1488894;79;732;-72
2021/08/07 07:24:27;;;;;;;;;;;23.90;50.00;;;;;;1490718;78;767;-68
2021/08/07 07:26:29;;;;;;;;;;;23.90;50.10;;;;;;1496897;78;1920;-70
2021/08/07 07:28:30;;;;;;;;;;;23.90;50.20;;;;;;1497299;78;1139;-69
2021/08/07 07:30:32;;;;;;;;;;;23.90;50.20;;;;;;1489284;78;722;-66
2021/08/07 07:32:34;;;;;;;;;;;24.00;50.30;;;;;;1499677;78;711;-66
2021/08/07 07:34:36;;;;;;;;;;;24.00;50.70;;;;;;1483663;78;696;-65
2021/08/07 07:36:38;;;;;;;;;;;24.00;50.70;;;;;;1490639;78;1065;-63
2021/08/07 07:38:40;;;;;;;;;;;23.90;50.50;;;;;;1486717;78;732;-66
2021/08/07 07:40:42;;;;;;;;;;;24.00;50.80;;;;;;1493252;78;723;-64
2021/08/07 07:42:44;;;;;;;;;;;23.90;50.90;;;;;;1493307;78;840;-66
2021/08/07 07:44:46;;;;;;;;;;;23.90;51.10;;;;;;1489516;78;669;-65
2021/08/07 07:46:48;;;;;;;;;;;24.00;51.10;;;;;;1492308;78;1948;-66
2021/08/07 07:48:50;;;;;;;;;;;24.00;51.30;;;;;;1488688;78;812;-66
2021/08/07 07:50:51;;;;;;;;;;;24.00;51.30;;;;;;1498850;78;713;-66
2021/08/07 07:52:53;;;;;;;;;;;24.00;51.40;;;;;;1490153;78;756;-66
2021/08/07 07:54:55;;;;;;;;;;;24.10;51.30;;;;;;1510229;78;642;-66
2021/08/07 07:56:57;;;;;;;;;;;24.00;51.20;;;;;;1491176;78;1146;-66
2021/08/07 07:58:59;;;;;;;;;;;23.90;51.20;;;;;;1491246;78;733;-67
2021/08/07 08:01:01;;;;;;;;;;;24.00;51.30;;;;;;1492750;78;794;-66
2021/08/07 08:03:03;;;;;;;;;;;24.00;51.30;;;;;;1496343;78;813;-66
2021/08/07 08:05:05;;;;;;;;;;;23.90;51.30;;;;;;1498023;78;730;-67
2021/08/07 08:07:06;;;;;;;;;;;24.00;51.20;;;;;;1494733;78;1937;-65
2021/08/07 08:09:08;;;;;;;;;;;24.00;51.20;;;;;;1493155;78;776;-66
2021/08/07 08:11:10;;;;;;;;;;;24.10;51.30;;;;;;1500556;78;752;-65
2021/08/07 08:13:12;;;;;;;;;;;24.10;51.30;;;;;;1489810;78;749;-67
2021/08/07 08:15:14;;;;;;;;;;;24.10;51.10;;;;;;1494819;78;837;-70
2021/08/07 08:17:16;;;;;;;;;;;24.10;51.60;;;;;;1488194;78;1140;-71
2021/08/07 08:19:18;;;;;;;;;;;24.10;51.50;;;;;;1492096;78;749;-70
2021/08/07 08:21:20;;;;;;;;;;;24.20;51.30;;;;;;1484640;78;764;-67
2021/08/07 08:23:21;;;;;;;;;;;24.10;51.50;;;;;;1498535;78;768;-67
2021/08/07 08:25:24;;;;;;;;;;;24.20;51.50;;;;;;1499517;78;1941;-66
2021/08/07 08:27:26;;;;;;;;;;;24.30;52.10;;;;;;1496007;78;1162;-67
2021/08/07 08:29:28;;;;;;;;;;;24.20;51.80;;;;;;1491651;78;791;-69
2021/08/07 08:31:30;;;;;;;;;;;24.30;52.10;;;;;;1496147;78;723;-69
2021/08/07 08:33:32;;;;;;;;;;;24.20;52.20;;;;;;1493881;78;720;-69
2021/08/07 08:35:34;;;;;;;;;;;24.40;51.90;;;;;;1496187;78;692;-67
2021/08/07 08:37:36;;;;;;;;;;;24.40;51.50;;;;;;1492911;78;1169;-70
2021/08/07 08:39:38;;;;;;;;;;;24.40;51.40;;;;;;1484150;78;761;-70
2021/08/07 08:41:39;;;;;;;;;;;24.40;51.10;;;;;;1496795;78;751;-69
2021/08/07 08:43:46;;;;;;;;;;;24.50;51.30;;;;;;1495617;78;703;-71
2021/08/07 08:45:45;;;;;;;;;;;24.40;51.10;;;;;;1503048;78;1932;-70
2021/08/07 08:47:47;;;;;;;;;;;24.50;50.90;;;;;;1490900;78;1154;-70
2021/08/07 08:49:52;;;;;;;;;;;24.50;50.50;;;;;;1501184;78;731;-71
2021/08/07 08:51:54;;;;;;;;;;;24.50;50.50;;;;;;1491278;78;688;-71
2021/08/07 08:53:56;;;;;;;;;;;24.50;50.50;;;;;;1492338;78;800;-71
2021/08/07 08:55:58;;;;;;;;;;;24.60;50.50;;;;;;1492319;78;729;-71
2021/08/07 08:58:00;;;;;;;;;;;24.60;50.40;;;;;;1492146;78;1133;-71
2021/08/07 09:00:02;;;;;;;;;;;24.50;50.40;;;;;;1498353;78;713;-69
2021/08/07 09:02:04;;;;;;;;;;;24.50;50.40;;;;;;1494553;78;863;-71
2021/08/07 09:04:06;;;;;;;;;;;24.50;50.60;;;;;;1487447;78;716;-68
2021/08/07 09:06:11;;;;;;;;;;;24.50;50.60;;;;;;1489625;78;1923;-69
2021/08/07 09:08:11;;;;;;;;;;;24.60;50.40;;;;;;1491109;78;1681;-69
2021/08/07 09:10:13;;;;;;;;;;;24.60;50.20;;;;;;1480372;79;756;-69
2021/08/07 09:12:15;;;;;;;;;;;24.70;50.10;;;;;;1536057;76;726;-69
2021/08/07 09:14:26;;;;;;;;;;;24.70;49.80;;;;;;1544249;76;716;-69
2021/08/07 09:16:28;;;;;;;;;;;24.60;49.80;;;;;;1532778;76;806;-70
2021/08/07 09:18:30;;;;;;;;;;;24.60;49.60;;;;;;1543480;76;1146;-70
2021/08/07 09:20:32;;;;;;;;;;;24.60;49.50;;;;;;1533950;76;746;-69
2021/08/07 09:22:34;;;;;;;;;;;24.60;49.40;;;;;;1540043;76;802;-69
2021/08/07 09:24:37;;;;;;;;;;;24.60;49.40;;;;;;1541735;76;704;-69
2021/08/07 09:26:42;;;;;;;;;;;24.70;49.60;;;;;;1541281;76;1935;-69
2021/08/07 09:28:44;;;;;;;;;;;24.70;49.50;;;;;;1549406;76;1742;-70
2021/08/07 09:30:46;;;;;;;;;;;24.60;49.50;;;;;;1533532;76;1044;-68
2021/08/07 09:32:49;;;;;;;;;;;24.60;49.90;;;;;;1534965;76;782;-68
2021/08/07 09:35:01;;;;;;;;;;;24.60;49.70;;;;;;1536467;76;783;-69
2021/08/07 09:37:03;;;;;;;;;;;24.60;49.60;;;;;;1536249;76;1306;-69
2021/08/07 09:39:05;;;;;;;;;;;24.60;49.60;;;;;;1532436;76;741;-68
2021/08/07 09:41:07;;;;;;;;;;;24.50;49.60;;;;;;1544145;76;967;-69
2021/08/07 09:43:09;;;;;;;;;;;24.50;49.60;;;;;;1530320;76;726;-69
2021/08/07 09:45:11;;;;;;;;;;;24.50;49.60;;;;;;1531364;76;744;-68
2021/08/07 09:47:13;;;;;;;;;;;24.50;49.60;;;;;;1539778;76;1925;-70
2021/08/07 09:49:15;;;;;;;;;;;24.50;49.60;;;;;;1540222;76;588;-70
2021/08/07 09:51:27;;;;;;;;;;;24.50;49.70;;;;;;1532135;76;736;-69
2021/08/07 09:53:29;;;;;;;;;;;24.50;49.70;;;;;;1529430;76;784;-69
2021/08/07 09:55:31;;;;;;;;;;;24.50;49.80;;;;;;1524491;76;674;-69
2021/08/07 09:57:33;;;;;;;;;;;24.50;49.90;;;;;;1531768;76;1169;-69
2021/08/07 09:59:36;;;;;;;;;;;24.40;50.00;;;;;;1529599;76;819;-71
2021/08/07 10:01:38;;;;;;;;;;;24.50;50.00;;;;;;1527999;76;1888;-69
2021/08/07 10:03:40;;;;;;;;;;;24.40;50.00;;;;;;1531315;76;730;-68
2021/08/07 10:05:42;;;;;;;;;;;24.40;50.00;;;;;;1527152;76;720;-69
2021/08/07 10:08:03;;;;;;;;;;;24.50;50.10;;;;;;1527354;76;1937;-69
2021/08/07 10:10:21;;;;;;;;;;;24.40;50.20;;;;;;1525026;76;648;-69
2021/08/07 10:12:22;;;;;;;;;;;24.40;50.20;;;;;;1536957;76;744;-68
2021/08/07 10:14:24;;;;;;;;;;;24.40;50.30;;;;;;1519567;76;759;-69
2021/08/07 10:16:26;;;;;;;;;;;24.40;50.30;;;;;;1524983;76;782;-69
2021/08/07 10:18:28;;;;;;;;;;;24.40;50.30;;;;;;1525688;76;1097;-70
2021/08/07 10:20:30;;;;;;;;;;;24.40;50.40;;;;;;1535403;76;847;-69
2021/08/07 10:22:32;;;;;;;;;;;24.40;50.50;;;;;;1526866;76;756;-70
2021/08/07 10:24:35;;;;;;;;;;;24.40;50.50;;;;;;1521550;76;746;-69
2021/08/07 10:26:37;;;;;;;;;;;24.40;50.60;;;;;;1523540;76;1938;-70
2021/08/07 10:28:40;;;;;;;;;;;24.40;50.50;;;;;;1519855;76;783;-69
2021/08/07 10:30:43;;;;;;;;;;;24.40;50.30;;;;;;1528870;76;778;-69
2021/08/07 10:32:45;;;;;;;;;;;24.40;50.30;;;;;;1530415;76;708;-70
2021/08/07 10:34:49;;;;;;;;;;;24.40;50.40;;;;;;1518550;76;737;-70
2021/08/07 10:36:50;;;;;;;;;;;24.40;50.40;;;;;;1535113;76;1179;-69
2021/08/07 10:38:52;;;;;;;;;;;24.40;50.30;;;;;;1533972;76;701;-70
2021/08/07 10:40:55;;;;;;;;;;;24.30;50.50;;;;;;1525304;76;602;-69
2021/08/07 10:42:57;;;;;;;;;;;24.50;50.60;;;;;;1542567;76;737;-69
2021/08/07 10:44:58;;;;;;;;;;;24.40;50.50;;;;;;1536006;76;650;-68
2021/08/07 10:47:00;;;;;;;;;;;24.50;50.50;;;;;;1523490;76;1932;-69
2021/08/07 10:49:02;;;;;;;;;;;24.50;50.50;;;;;;1524615;76;727;-69
2021/08/07 10:51:21;;;;;;;;;;;24.40;50.30;;;;;;1547707;76;795;-70
2021/08/07 10:53:25;;;;;;;;;;;24.40;50.40;;;;;;1533745;76;700;-71
2021/08/07 10:55:46;;;;;;;;;;;24.40;50.30;;;;;;1536699;76;885;-71
2021/08/07 10:57:48;;;;;;;;;;;24.30;50.10;;;;;;1502310;77;1176;-69
2021/08/07 10:59:50;;;;;;;;;;;24.40;50.00;;;;;;1530104;76;679;-69
2021/08/07 11:01:52;;;;;;;;;;;24.40;50.00;;;;;;1529153;76;739;-69
2021/08/07 11:04:07;;;;;;;;;;;24.50;50.20;;;;;;1526735;76;801;-72
2021/08/07 11:06:09;;;;;;;;;;;24.40;50.00;;;;;;1523910;76;866;-71
2021/08/07 11:08:17;;;;;;;;;;;24.50;50.10;;;;;;1537489;76;1940;-72
2021/08/07 11:10:19;;;;;;;;;;;24.50;50.00;;;;;;1523991;76;825;-71
2021/08/07 11:12:21;;;;;;;;;;;24.40;49.90;;;;;;1525121;76;722;-72
2021/08/07 11:14:28;;;;;;;;;;;24.40;50.00;;;;;;1532728;76;708;-72
2021/08/07 11:16:30;;;;;;;;;;;24.40;50.00;;;;;;1535654;76;614;-73
2021/08/07 11:18:32;;;;;;;;;;;24.40;49.90;;;;;;1534788;76;1141;-72
2021/08/07 11:20:38;;;;;;;;;;;24.30;50.00;;;;;;1529830;76;821;-72
2021/08/07 11:22:41;;;;;;;;;;;24.30;50.00;;;;;;1530249;76;762;-74
2021/08/07 11:24:51;;;;;;;;;;;24.40;50.00;;;;;;1530967;76;656;-72
2021/08/07 11:26:53;;;;;;;;;;;24.30;49.90;;;;;;1534562;76;1946;-74
2021/08/07 11:29:04;;;;;;;;;;;24.30;49.90;;;;;;1532174;76;759;-70
2021/08/07 11:31:13;;;;;;;;;;;24.30;50.00;;;;;;1538760;76;725;-70
2021/08/07 11:33:16;;;;;;;;;;;24.30;50.00;;;;;;1527652;76;810;-70
2021/08/07 11:35:18;;;;;;;;;;;24.30;49.90;;;;;;1527255;76;820;-73
2021/08/07 11:37:20;;;;;;;;;;;24.30;49.90;;;;;;1537337;76;1149;-72
2021/08/07 11:39:22;;;;;;;;;;;24.30;49.90;;;;;;1541139;76;1111;-73
2021/08/07 11:41:30;;;;;;;;;;;24.30;49.80;;;;;;1539466;76;722;-72
2021/08/07 11:43:37;;;;;;;;;;;24.30;49.90;;;;;;1537093;76;726;-72
2021/08/07 11:45:39;;;;;;;;;;;24.30;49.90;;;;;;1529376;76;699;-70
2021/08/07 11:47:44;;;;;;;;;;;24.30;49.90;;;;;;1536391;76;1948;-71
2021/08/07 11:49:46;;;;;;;;;;;24.40;49.90;;;;;;1534602;76;760;-73
2021/08/07 11:51:48;;;;;;;;;;;24.40;49.90;;;;;;1538178;76;755;-73
2021/08/07 11:53:50;;;;;;;;;;;24.30;49.80;;;;;;1506100;77;1188;-73
2021/08/07 11:55:59;;;;;;;;;;;24.30;49.90;;;;;;1499323;79;727;-72
2021/08/07 11:58:05;;;;;;;;;;;24.30;49.90;;;;;;1497692;78;1153;-71
2021/08/07 12:00:25;;;;;;;;;;;24.30;49.80;;;;;;1505283;78;777;-73
2021/08/07 12:02:27;;;;;;;;;;;24.30;49.90;;;;;;1501820;78;779;-70
2021/08/07 12:04:29;;;;;;;;;;;24.30;49.90;;;;;;1496711;77;751;-69
2021/08/07 12:06:32;;;;;;;;;;;24.30;49.80;;;;;;1493027;78;830;-72
2021/08/07 12:08:33;;;;;;;;;;;24.30;49.80;;;;;;1499874;77;1933;-71
2021/08/07 12:10:36;;;;;;;;;;;24.30;49.80;;;;;;1497908;77;732;-72
2021/08/07 12:12:44;;;;;;;;;;;24.30;49.70;;;;;;1496392;78;742;-71
2021/08/07 12:14:46;;;;;;;;;;;24.30;49.70;;;;;;1501060;78;815;-70